createdAt,value
2018-08-03T00:01:36.084Z,5.43
2018-08-03T00:06:20.805Z,6.07
2018-08-03T00:11:04.294Z,5.87
2018-08-03T00:15:51.824Z,5.63
2018-08-03T00:20:35.194Z,7.07
2018-08-03T00:25:18.865Z,5.93
2018-08-03T00:30:06.456Z,5.77
2018-08-03T00:34:50.826Z,5.83
2018-08-03T00:39:37.344Z,6.03
2018-08-03T00:44:20.965Z,5.20
2018-08-03T00:49:09.027Z,5.93
2018-08-03T00:53:52.648Z,5.67
2018-08-03T00:58:37.162Z,6.47
2018-08-03T01:03:20.890Z,6.30
2018-08-03T01:08:08.093Z,6.57
2018-08-03T01:12:51.775Z,6.80
2018-08-03T01:17:35.183Z,6.97
2018-08-03T01:22:18.738Z,6.77
2018-08-03T01:27:02.276Z,6.30
2018-08-03T01:31:45.820Z,6.03
2018-08-03T01:36:30.705Z,6.07
2018-08-03T01:41:14.370Z,6.47
2018-08-03T01:45:59.088Z,6.50
2018-08-03T01:50:42.580Z,7.33
2018-08-03T01:55:26.067Z,7.53
2018-08-03T02:00:09.768Z,7.37
2018-08-03T02:04:53.305Z,7.23
2018-08-03T02:09:36.918Z,7.00
2018-08-03T02:14:20.515Z,7.17
2018-08-03T02:19:07.447Z,6.67
2018-08-03T02:23:51.071Z,6.90
2018-08-03T02:28:35.798Z,6.97
2018-08-03T02:33:19.440Z,7.90
2018-08-03T02:38:03.039Z,8.30
2018-08-03T02:42:46.505Z,7.67
2018-08-03T02:47:30.113Z,8.03
2018-08-03T02:52:13.781Z,7.20
2018-08-03T02:56:58.496Z,7.93
2018-08-03T03:01:42.079Z,6.73
2018-08-03T03:06:25.800Z,6.50
2018-08-03T03:11:09.491Z,6.73
2018-08-03T03:15:56.291Z,6.93
2018-08-03T03:20:39.818Z,7.97
2018-08-03T03:25:25.059Z,8.20
2018-08-03T03:30:09.555Z,7.37
2018-08-03T03:34:53.093Z,7.33
2018-08-03T03:39:37.648Z,7.30
2018-08-03T03:44:21.339Z,7.33
2018-08-03T03:49:08.799Z,7.83
2018-08-03T03:53:52.193Z,7.13
2018-08-03T03:58:35.849Z,7.80
2018-08-03T04:03:19.509Z,8.37
2018-08-03T04:08:04.194Z,7.90
2018-08-03T04:12:47.703Z,8.10
2018-08-03T04:17:31.521Z,8.07
2018-08-03T04:22:15.102Z,7.83
2018-08-03T04:26:59.845Z,7.60
2018-08-03T04:31:43.345Z,9.40
2018-08-03T04:36:27.132Z,8.13
2018-08-03T04:41:12.670Z,8.30
2018-08-03T04:45:56.903Z,7.53
2018-08-03T04:50:40.408Z,7.40
2018-08-03T04:55:27.657Z,6.30
2018-08-03T05:00:11.208Z,8.00
2018-08-03T05:04:54.716Z,7.53
2018-08-03T05:09:38.352Z,7.57
2018-08-03T05:14:21.945Z,7.23
2018-08-03T05:19:05.620Z,8.33
2018-08-03T05:23:49.265Z,7.73
2018-08-03T05:28:36.186Z,7.30
2018-08-03T05:33:19.777Z,7.00
2018-08-03T05:38:03.270Z,7.40
2018-08-03T05:42:46.789Z,8.03
2018-08-03T05:47:36.766Z,7.27
2018-08-03T05:52:20.401Z,7.07
2018-08-03T05:57:04.065Z,7.60
2018-08-03T06:01:47.775Z,7.63
2018-08-03T06:06:35.049Z,7.43
2018-08-03T06:11:18.694Z,7.90
2018-08-03T06:16:12.019Z,10.27
2018-08-03T06:20:59.926Z,7.57
2018-08-03T06:25:49.365Z,7.33
2018-08-03T06:30:32.892Z,7.20
2018-08-03T06:35:17.494Z,7.03
2018-08-03T06:40:01.008Z,6.90
2018-08-03T06:44:44.660Z,7.73
2018-08-03T06:49:28.086Z,7.53
2018-08-03T06:54:11.783Z,8.03
2018-08-03T06:58:56.382Z,6.70
2018-08-03T07:03:39.982Z,7.77
2018-08-03T07:08:24.801Z,7.10
2018-08-03T07:13:08.496Z,7.90
2018-08-03T07:17:52.468Z,6.87
2018-08-03T07:22:36.291Z,6.97
2018-08-03T07:27:20.090Z,7.27
2018-08-03T07:32:03.761Z,7.40
2018-08-03T07:36:47.532Z,7.20
2018-08-03T07:41:31.120Z,9.17
2018-08-03T07:46:14.987Z,7.50
2018-08-03T07:50:58.601Z,7.53
2018-08-03T07:55:43.170Z,7.83
2018-08-03T08:00:27.294Z,7.57
2018-08-03T08:05:13.311Z,6.77
2018-08-03T08:09:57.830Z,6.40
2018-08-03T08:14:41.686Z,7.47
2018-08-03T08:19:25.956Z,7.07
2018-08-03T08:24:09.549Z,7.57
2018-08-03T08:28:59.360Z,6.60
2018-08-03T08:33:42.873Z,6.90
2018-08-03T08:38:30.003Z,6.77
2018-08-03T08:43:13.695Z,7.20
2018-08-03T08:47:58.545Z,7.23
2018-08-03T08:52:42.401Z,7.47
2018-08-03T08:57:29.564Z,8.30
2018-08-03T09:02:12.983Z,7.07
2018-08-03T09:06:56.817Z,7.67
2018-08-03T09:11:40.397Z,8.53
2018-08-03T09:16:27.233Z,8.00
2018-08-03T09:21:10.761Z,7.30
2018-08-03T09:25:54.350Z,6.87
2018-08-03T09:30:37.799Z,7.00
2018-08-03T09:35:22.120Z,7.33
2018-08-03T09:40:05.739Z,7.07
2018-08-03T09:44:53.357Z,6.05
2018-08-03T09:49:37.017Z,6.53
2018-08-03T09:54:24.229Z,10.10
2018-08-03T09:59:07.814Z,6.20
2018-08-03T10:03:51.551Z,7.77
2018-08-03T10:08:37.167Z,6.67
2018-08-03T10:13:20.785Z,5.47
2018-08-03T10:18:07.362Z,4.97
2018-08-03T10:24:20.482Z,5.90
2018-08-03T10:29:04.151Z,5.10
2018-08-03T10:33:47.744Z,4.93
2018-08-03T10:38:32.263Z,4.65
2018-08-03T10:43:15.832Z,4.40
2018-08-03T10:48:00.355Z,4.40
2018-08-03T10:52:44.486Z,4.55
2018-08-03T10:57:28.130Z,3.83
2018-08-03T11:02:11.602Z,4.22
2018-08-03T11:06:58.984Z,3.92
2018-08-03T11:11:42.489Z,4.12
2018-08-03T11:16:29.454Z,4.10
2018-08-03T11:21:13.106Z,4.22
2018-08-03T11:26:00.354Z,4.25
2018-08-03T11:30:43.774Z,4.30
2018-08-03T11:35:27.663Z,3.67
2018-08-03T11:40:11.402Z,3.75
2018-08-03T11:44:58.440Z,4.05
2018-08-03T11:49:41.853Z,4.08
2018-08-03T11:54:25.589Z,3.40
2018-08-03T11:59:09.186Z,3.62
2018-08-03T12:03:52.742Z,3.72
2018-08-03T12:08:45.643Z,3.22
2018-08-03T12:13:32.251Z,3.45
2018-08-03T12:18:17.112Z,3.40
2018-08-03T12:23:00.739Z,3.27
2018-08-03T12:27:50.010Z,3.70
2018-08-03T12:32:33.620Z,4.20
2018-08-03T12:37:23.101Z,3.90
2018-08-03T12:42:06.729Z,3.65
2018-08-03T12:46:50.635Z,3.30
2018-08-03T12:51:34.144Z,3.70
2018-08-03T12:56:21.688Z,3.45
2018-08-03T13:01:05.288Z,3.75
2018-08-03T13:05:52.298Z,3.62
2018-08-03T13:10:35.758Z,3.75
2018-08-03T13:15:19.279Z,2.98
2018-08-03T13:20:02.750Z,2.80
2018-08-03T13:24:49.982Z,3.58
2018-08-03T13:29:33.687Z,3.65
2018-08-03T13:34:20.284Z,3.30
2018-08-03T13:39:06.018Z,2.98
2018-08-03T13:43:50.752Z,4.08
2018-08-03T13:48:34.850Z,3.00
2018-08-03T13:53:18.335Z,3.27
2018-08-03T13:58:02.237Z,2.83
2018-08-03T14:02:45.730Z,2.92
2018-08-03T14:07:29.337Z,2.80
2018-08-03T14:12:12.868Z,3.30
2018-08-03T14:16:57.271Z,3.37
2018-08-03T14:21:40.896Z,3.70
2018-08-03T14:26:25.336Z,3.35
2018-08-03T14:31:08.833Z,3.72
2018-08-03T14:35:52.495Z,3.60
2018-08-03T14:40:36.162Z,3.58
2018-08-03T14:45:20.782Z,3.58
2018-08-03T14:50:04.958Z,4.42
2018-08-03T14:54:51.719Z,3.17
2018-08-03T14:59:35.118Z,4.08
2018-08-03T15:04:21.713Z,3.20
2018-08-03T15:09:10.245Z,3.22
2018-08-03T15:13:54.815Z,3.70
2018-08-03T15:18:38.354Z,3.10
2018-08-03T15:23:21.930Z,3.37
2018-08-03T15:28:05.642Z,3.35
2018-08-03T15:32:49.288Z,3.22
2018-08-03T15:37:39.195Z,3.62
2018-08-03T15:42:22.689Z,4.25
2018-08-03T15:47:06.402Z,3.77
2018-08-03T15:51:50.019Z,3.27
2018-08-03T15:56:34.491Z,3.62
2018-08-03T16:01:22.205Z,4.80
2018-08-03T16:06:09.752Z,3.58
2018-08-03T16:10:53.313Z,3.92
2018-08-03T16:15:37.089Z,5.65
2018-08-03T16:20:20.654Z,4.22
2018-08-03T16:25:05.913Z,3.65
2018-08-03T16:29:50.415Z,3.80
2018-08-03T16:34:34.249Z,4.50
2018-08-03T16:39:18.730Z,4.37
2018-08-03T16:44:05.809Z,4.23
2018-08-03T16:48:52.290Z,4.53
2018-08-03T16:53:41.157Z,4.47
2018-08-03T16:58:24.798Z,5.58
2018-08-03T17:03:08.530Z,6.20
2018-08-03T17:07:52.327Z,5.80
2018-08-03T17:12:36.030Z,7.73
2018-08-03T17:17:24.553Z,5.93
2018-08-03T17:22:08.070Z,6.20
2018-08-03T17:26:55.156Z,6.73
2018-08-03T17:31:38.794Z,7.10
2018-08-03T17:36:22.802Z,7.70
2018-08-03T17:41:06.466Z,8.30
2018-08-03T17:45:53.752Z,8.00
2018-08-03T17:50:37.367Z,10.17
2018-08-03T17:55:21.929Z,8.67
2018-08-03T18:00:05.603Z,5.90
2018-08-03T18:04:54.756Z,4.90
2018-08-03T18:09:38.250Z,4.37
2018-08-03T18:14:25.512Z,4.27
2018-08-03T18:19:08.960Z,4.60
2018-08-03T18:23:56.409Z,5.27
2018-08-03T18:28:40.242Z,5.10
2018-08-03T18:33:27.343Z,5.30
2018-08-03T18:38:12.389Z,5.90
2018-08-03T18:42:58.545Z,9.40
2018-08-03T18:47:43.832Z,7.67
2018-08-03T18:52:28.260Z,8.40
2018-08-03T18:57:12.227Z,7.27
2018-08-03T19:01:56.132Z,5.50
2018-08-03T19:06:39.953Z,5.10
2018-08-03T19:11:23.694Z,4.80
2018-08-03T19:16:10.711Z,4.00
2018-08-03T19:20:54.398Z,3.53
2018-08-03T19:25:38.789Z,4.17
2018-08-03T19:30:22.226Z,4.20
2018-08-03T19:35:05.991Z,4.33
2018-08-03T19:39:49.593Z,4.00
2018-08-03T19:44:34.259Z,4.17
2018-08-03T19:49:17.857Z,4.43
2018-08-03T19:54:06.610Z,4.53
2018-08-03T19:58:50.472Z,3.70
2018-08-03T20:03:37.320Z,4.13
2018-08-03T20:08:20.913Z,7.60
2018-08-03T20:13:04.526Z,4.00
2018-08-03T20:17:48.003Z,3.70
2018-08-03T20:22:31.547Z,3.40
2018-08-03T20:27:17.025Z,4.20
2018-08-03T20:32:00.516Z,3.73
2018-08-03T20:36:44.157Z,4.00
2018-08-03T20:41:27.818Z,5.00
2018-08-03T20:46:14.308Z,4.70
2018-08-03T20:50:57.805Z,4.90
2018-08-03T20:55:46.926Z,4.60
2018-08-03T21:00:30.585Z,6.13
2018-08-03T21:05:18.849Z,5.83
2018-08-03T21:10:02.300Z,6.10
2018-08-03T21:14:49.457Z,6.20
2018-08-03T21:19:33.049Z,6.50
2018-08-03T21:24:19.543Z,7.13
2018-08-03T21:29:03.162Z,6.97
2018-08-03T21:33:49.851Z,7.10
2018-08-03T21:38:33.296Z,6.43
2018-08-03T21:43:17.839Z,6.67
2018-08-03T21:48:01.450Z,6.40
2018-08-03T21:52:45.019Z,7.17
2018-08-03T21:57:29.169Z,6.50
2018-08-03T22:02:12.541Z,7.13
2018-08-03T22:06:56.400Z,6.67
2018-08-03T22:11:39.849Z,6.77
2018-08-03T22:16:27.194Z,6.70
2018-08-03T22:21:10.727Z,6.87
2018-08-03T22:25:58.236Z,7.03
2018-08-03T22:30:41.838Z,9.03
2018-08-03T22:35:25.354Z,10.27
2018-08-03T22:40:08.857Z,7.87
2018-08-03T22:44:56.036Z,7.53
2018-08-03T22:49:39.734Z,7.10
2018-08-03T22:54:24.395Z,6.63
2018-08-03T22:59:07.984Z,6.40
2018-08-03T23:03:55.397Z,6.87
2018-08-03T23:08:38.901Z,6.33
2018-08-03T23:13:26.022Z,6.67
2018-08-03T23:18:09.470Z,8.07
2018-08-03T23:22:53.208Z,7.50
2018-08-03T23:27:36.726Z,7.47
2018-08-03T23:32:21.525Z,7.27
2018-08-03T23:37:05.057Z,7.23
2018-08-03T23:41:48.557Z,7.13
2018-08-03T23:46:35.800Z,7.43
2018-08-03T23:51:19.153Z,7.07
2018-08-03T23:56:03.885Z,7.20
